createdAt,value
2017-08-11T00:00:00.450Z,17.19
2017-08-11T00:01:00.437Z,17.33
2017-08-11T00:02:00.413Z,17.22
2017-08-11T00:03:00.720Z,17.27
2017-08-11T00:04:00.384Z,17.33
2017-08-11T00:05:00.060Z,17.34
2017-08-11T00:06:00.661Z,17.18
2017-08-11T00:07:00.337Z,17.18
2017-08-11T00:08:00.707Z,17.27
2017-08-11T00:09:00.005Z,17.31
2017-08-11T00:10:00.291Z,17.15
2017-08-11T00:11:00.599Z,17.33
2017-08-11T00:12:00.581Z,17.3
2017-08-11T00:13:00.243Z,17.3
2017-08-11T00:14:00.532Z,17.34
2017-08-11T00:15:00.214Z,17.29
2017-08-11T00:16:00.200Z,17.34
2017-08-11T00:17:00.490Z,17.29
2017-08-11T00:18:00.171Z,17.3
2017-08-11T00:19:00.141Z,17.31
2017-08-11T00:19:59.811Z,17.33
2017-08-11T00:21:00.111Z,17.29
2017-08-11T00:22:00.112Z,17.31
2017-08-11T00:23:00.082Z,17.44
2017-08-11T00:24:00.070Z,17.4
2017-08-11T00:25:00.361Z,17.39
2017-08-11T00:26:00.349Z,17.31
2017-08-11T00:27:00.332Z,17.33
2017-08-11T00:27:59.994Z,17.31
2017-08-11T00:29:00.294Z,17.34
2017-08-11T00:29:59.964Z,17.31
2017-08-11T00:30:59.953Z,17.36
2017-08-11T00:31:59.932Z,17.29
2017-08-11T00:33:00.228Z,17.39
2017-08-11T00:33:59.597Z,17.44
2017-08-11T00:35:00.188Z,17.45
2017-08-11T00:36:00.180Z,17.44
2017-08-11T00:37:00.171Z,17.3
2017-08-11T00:37:59.843Z,17.18
2017-08-11T00:38:59.814Z,17.24
2017-08-11T00:40:00.113Z,17.31
2017-08-11T00:41:00.093Z,17.27
2017-08-11T00:41:59.781Z,17.37
2017-08-11T00:43:00.073Z,17.36
2017-08-11T00:44:00.053Z,17.36
2017-08-11T00:45:00.034Z,17.33
2017-08-11T00:45:59.717Z,17.29
2017-08-11T00:46:59.382Z,17.31
2017-08-11T00:47:59.976Z,17.44
2017-08-11T00:48:59.345Z,17.33
2017-08-11T00:49:59.959Z,17.3
2017-08-11T00:50:59.631Z,17.34
2017-08-11T00:51:59.919Z,17.36
2017-08-11T00:52:59.602Z,17.33
2017-08-11T00:53:59.582Z,17.37
2017-08-11T00:54:59.862Z,17.29
2017-08-11T00:55:59.842Z,17.34
2017-08-11T00:56:59.831Z,17.27
2017-08-11T00:57:59.523Z,17.33
2017-08-11T00:58:59.513Z,17.31
2017-08-11T00:59:59.472Z,17.27
2017-08-11T01:00:59.465Z,17.31
2017-08-11T01:01:59.443Z,17.31
2017-08-11T01:02:59.733Z,17.31
2017-08-11T01:03:59.401Z,17.36
2017-08-11T01:04:59.394Z,17.46
2017-08-11T01:05:59.689Z,17.48
2017-08-11T01:06:59.065Z,17.46
2017-08-11T01:07:59.351Z,17.39
2017-08-11T01:08:59.633Z,17.45
2017-08-11T01:09:59.631Z,17.44
2017-08-11T01:10:59.291Z,17.45
2017-08-11T01:11:59.280Z,17.45
2017-08-11T01:12:59.572Z,17.46
2017-08-11T01:13:59.251Z,17.4
2017-08-11T01:14:59.543Z,17.42
2017-08-11T01:15:59.225Z,17.36
2017-08-11T01:16:59.512Z,17.48
2017-08-11T01:17:59.501Z,17.44
2017-08-11T01:18:58.868Z,17.48
2017-08-11T01:19:59.161Z,17.46
2017-08-11T01:20:59.443Z,17.4
2017-08-11T01:21:59.419Z,17.42
2017-08-11T01:22:59.103Z,17.42
2017-08-11T01:23:59.131Z,17.44
2017-08-11T01:24:59.072Z,17.46
2017-08-11T01:25:59.357Z,17.44
2017-08-11T01:26:59.067Z,17.37
2017-08-11T01:27:59.354Z,17.44
2017-08-11T01:28:59.025Z,17.39
2017-08-11T01:29:59.012Z,17.39
2017-08-11T01:30:58.739Z,17.48
2017-08-11T01:31:58.956Z,17.42
2017-08-11T01:32:58.645Z,17.49
2017-08-11T01:33:59.028Z,17.37
2017-08-11T01:34:58.950Z,17.48
2017-08-11T01:35:59.039Z,17.45
2017-08-11T01:36:58.883Z,17.42
2017-08-11T01:37:58.942Z,17.44
2017-08-11T01:38:59.148Z,17.42
2017-08-11T01:39:58.921Z,17.34
2017-08-11T01:40:58.501Z,17.36
2017-08-11T01:41:59.103Z,17.44
2017-08-11T01:42:58.871Z,17.46
2017-08-11T01:43:58.881Z,17.34
2017-08-11T01:44:58.518Z,17.4
2017-08-11T01:45:59.041Z,17.22
2017-08-11T01:46:59.018Z,17.22
2017-08-11T01:47:58.700Z,17.31
2017-08-11T01:48:59.001Z,17.22
2017-08-11T01:49:58.353Z,17.21
2017-08-11T01:50:58.651Z,17.24
2017-08-11T01:51:58.633Z,17.18
2017-08-11T01:52:58.966Z,17.15
2017-08-11T01:53:58.993Z,17.16
2017-08-11T01:54:58.900Z,17.06
2017-08-11T01:55:58.581Z,17.09
2017-08-11T01:56:58.570Z,17.14
2017-08-11T01:57:58.938Z,17.06
2017-08-11T01:58:58.840Z,17.01
2017-08-11T01:59:58.503Z,17.05
2017-08-11T02:00:58.492Z,17.08
2017-08-11T02:01:58.544Z,17.03
2017-08-11T02:02:58.161Z,17.03
2017-08-11T02:03:58.565Z,16.94
2017-08-11T02:04:58.821Z,16.9
2017-08-11T02:05:58.408Z,16.9
2017-08-11T02:06:58.381Z,16.85
2017-08-11T02:07:58.380Z,16.83
2017-08-11T02:08:58.665Z,16.81
2017-08-11T02:09:58.640Z,16.83
2017-08-11T02:10:58.323Z,16.81
2017-08-11T02:11:58.611Z,16.74
2017-08-11T02:12:58.290Z,16.78
2017-08-11T02:13:58.270Z,16.79
2017-08-11T02:14:58.252Z,16.74
2017-08-11T02:15:58.249Z,16.81
2017-08-11T02:16:57.921Z,16.85
2017-08-11T02:17:58.195Z,16.89
2017-08-11T02:18:58.209Z,16.83
2017-08-11T02:19:58.170Z,16.93
2017-08-11T02:20:58.150Z,16.96
2017-08-11T02:21:58.451Z,16.93
2017-08-11T02:22:57.827Z,16.87
2017-08-11T02:23:57.794Z,16.9
2017-08-11T02:24:58.092Z,16.93
2017-08-11T02:25:58.072Z,16.82
2017-08-11T02:26:58.367Z,16.81
2017-08-11T02:27:58.041Z,16.66
2017-08-11T02:28:58.020Z,16.72
2017-08-11T02:29:57.711Z,16.74
2017-08-11T02:30:58.304Z,16.74
2017-08-11T02:31:58.273Z,16.71
2017-08-11T02:32:57.660Z,16.71
2017-08-11T02:33:58.242Z,16.76
2017-08-11T02:34:57.922Z,16.78
2017-08-11T02:35:57.900Z,16.82
2017-08-11T02:36:57.594Z,16.79
2017-08-11T02:37:57.872Z,16.81
2017-08-11T02:38:57.856Z,16.82
2017-08-11T02:39:58.134Z,16.81
2017-08-11T02:40:58.133Z,16.76
2017-08-11T02:41:57.802Z,16.81
2017-08-11T02:42:58.103Z,16.83
2017-08-11T02:43:58.090Z,16.89
2017-08-11T02:44:57.446Z,16.81
2017-08-11T02:45:58.050Z,16.81
2017-08-11T02:46:58.042Z,16.81
2017-08-11T02:47:57.711Z,16.76
2017-08-11T02:48:57.393Z,16.85
2017-08-11T02:49:57.983Z,16.83
2017-08-11T02:50:57.962Z,16.81
2017-08-11T02:51:57.341Z,16.83
2017-08-11T02:52:57.322Z,16.75
2017-08-11T02:53:57.301Z,16.79
2017-08-11T02:54:57.890Z,16.91
2017-08-11T02:55:57.580Z,16.87
2017-08-11T02:56:57.568Z,16.79
2017-08-11T02:57:57.846Z,16.79
2017-08-11T02:58:57.522Z,16.82
2017-08-11T02:59:57.811Z,16.69
2017-08-11T03:00:57.794Z,16.69
2017-08-11T03:01:57.471Z,16.71
2017-08-11T03:02:57.459Z,16.64
2017-08-11T03:03:57.756Z,16.72
2017-08-11T03:04:57.739Z,16.74
2017-08-11T03:05:57.413Z,16.68
2017-08-11T03:06:57.701Z,16.76
2017-08-11T03:07:57.708Z,16.75
2017-08-11T03:08:57.371Z,16.75
2017-08-11T03:09:57.653Z,16.78
2017-08-11T03:10:57.022Z,16.78
2017-08-11T03:11:57.101Z,16.87
2017-08-11T03:12:57.603Z,16.76
2017-08-11T03:13:57.279Z,16.72
2017-08-11T03:14:57.270Z,16.81
2017-08-11T03:15:57.255Z,16.82
2017-08-11T03:16:57.543Z,16.9
2017-08-11T03:17:57.214Z,16.79
2017-08-11T03:18:57.205Z,16.94
2017-08-11T03:19:57.255Z,16.9
2017-08-11T03:20:57.172Z,16.89
2017-08-11T03:21:57.447Z,16.9
2017-08-11T03:22:57.432Z,16.81
2017-08-11T03:23:57.416Z,16.81
2017-08-11T03:24:57.090Z,16.89
2017-08-11T03:25:57.101Z,16.9
2017-08-11T03:26:57.370Z,16.9
2017-08-11T03:27:57.080Z,16.93
2017-08-11T03:28:57.334Z,16.83
2017-08-11T03:29:57.019Z,16.89
2017-08-11T03:30:57.306Z,16.91
2017-08-11T03:31:56.989Z,16.97
2017-08-11T03:32:57.271Z,16.85
2017-08-11T03:33:56.951Z,16.89
2017-08-11T03:34:56.940Z,16.83
2017-08-11T03:35:56.900Z,16.81
2017-08-11T03:36:56.585Z,16.81
2017-08-11T03:37:57.182Z,16.83
2017-08-11T03:38:57.172Z,16.87
2017-08-11T03:39:56.988Z,16.82
2017-08-11T03:40:57.121Z,16.83
2017-08-11T03:41:57.122Z,16.81
2017-08-11T03:42:57.096Z,16.85
2017-08-11T03:43:57.082Z,16.87
2017-08-11T03:44:57.061Z,16.81
2017-08-11T03:45:56.446Z,16.83
2017-08-11T03:46:57.033Z,16.85
2017-08-11T03:47:56.401Z,16.85
2017-08-11T03:48:56.999Z,16.79
2017-08-11T03:49:56.369Z,16.89
2017-08-11T03:50:56.352Z,16.93
2017-08-11T03:51:56.646Z,16.94
2017-08-11T03:52:56.331Z,16.78
2017-08-11T03:53:56.609Z,16.78
2017-08-11T03:54:56.281Z,16.71
2017-08-11T03:55:56.578Z,16.71
2017-08-11T03:56:56.260Z,16.78
2017-08-11T03:57:56.851Z,16.75
2017-08-11T03:58:56.540Z,16.69
2017-08-11T03:59:56.212Z,16.76
2017-08-11T04:00:56.797Z,16.61
2017-08-11T04:01:56.780Z,16.71
2017-08-11T04:02:56.609Z,16.78
2017-08-11T04:03:56.754Z,16.78
2017-08-11T04:04:56.140Z,16.76
2017-08-11T04:05:56.410Z,16.76
2017-08-11T04:06:56.392Z,16.79
2017-08-11T04:07:56.390Z,16.82
2017-08-11T04:08:56.363Z,16.75
2017-08-11T04:09:56.658Z,16.87
2017-08-11T04:10:56.320Z,16.79
2017-08-11T04:11:56.319Z,16.79
2017-08-11T04:12:56.600Z,16.83
2017-08-11T04:13:56.288Z,16.81
2017-08-11T04:14:56.580Z,16.79
2017-08-11T04:15:56.250Z,16.79
2017-08-11T04:16:56.530Z,16.79
2017-08-11T04:17:56.519Z,16.79
2017-08-11T04:18:56.201Z,16.79
2017-08-11T04:19:56.220Z,16.76
2017-08-11T04:20:56.461Z,16.79
2017-08-11T04:21:56.450Z,16.78
2017-08-11T04:22:56.429Z,16.75
2017-08-11T04:23:56.416Z,16.81
2017-08-11T04:24:56.412Z,16.69
2017-08-11T04:25:56.380Z,16.69
2017-08-11T04:26:56.366Z,16.74
2017-08-11T04:27:56.045Z,16.74
2017-08-11T04:28:56.345Z,16.81
2017-08-11T04:29:56.320Z,16.68
2017-08-11T04:30:55.989Z,16.76
2017-08-11T04:31:56.293Z,16.71
2017-08-11T04:32:55.659Z,16.79
2017-08-11T04:33:55.642Z,16.79
2017-08-11T04:34:56.238Z,16.69
2017-08-11T04:35:56.220Z,16.72
2017-08-11T04:36:56.201Z,16.69
2017-08-11T04:37:56.230Z,16.64
2017-08-11T04:38:56.164Z,16.75
2017-08-11T04:39:55.861Z,16.58
2017-08-11T04:40:55.823Z,16.6
2017-08-11T04:41:56.129Z,16.6
2017-08-11T04:42:55.790Z,16.72
2017-08-11T04:43:55.778Z,16.76
2017-08-11T04:44:56.081Z,16.72
2017-08-11T04:45:55.790Z,16.76
2017-08-11T04:46:55.424Z,16.74
2017-08-11T04:47:55.800Z,16.76
2017-08-11T04:48:55.380Z,16.72
2017-08-11T04:49:55.994Z,16.56
2017-08-11T04:50:55.372Z,16.74
2017-08-11T04:51:55.762Z,16.69
2017-08-11T04:52:55.329Z,16.79
2017-08-11T04:53:55.610Z,16.79
2017-08-11T04:54:55.918Z,16.75
2017-08-11T04:55:55.956Z,16.78
2017-08-11T04:56:55.559Z,16.76
2017-08-11T04:57:55.969Z,16.71
2017-08-11T04:58:55.550Z,16.76
2017-08-11T04:59:55.631Z,16.69
2017-08-11T05:00:55.180Z,16.78
2017-08-11T05:01:55.480Z,16.66
2017-08-11T05:02:55.169Z,16.64
2017-08-11T05:03:55.454Z,16.76
2017-08-11T05:04:55.799Z,16.72
2017-08-11T05:05:55.214Z,16.76
2017-08-11T05:06:55.385Z,16.72
2017-08-11T05:07:55.481Z,16.76
2017-08-11T05:08:55.374Z,16.75
2017-08-11T05:09:55.399Z,16.74
2017-08-11T05:10:55.699Z,16.76
2017-08-11T05:11:55.649Z,16.74
2017-08-11T05:12:55.312Z,16.68
2017-08-11T05:13:55.678Z,16.76
2017-08-11T05:14:55.292Z,16.75
2017-08-11T05:15:55.341Z,16.81
2017-08-11T05:16:55.640Z,16.75
2017-08-11T05:17:55.225Z,16.82
2017-08-11T05:18:55.535Z,16.72
2017-08-11T05:19:55.195Z,16.75
2017-08-11T05:20:55.481Z,16.76
2017-08-11T05:21:55.199Z,16.74
2017-08-11T05:22:55.539Z,16.74
2017-08-11T05:23:55.123Z,16.81
2017-08-11T05:24:55.112Z,16.74
2017-08-11T05:25:55.397Z,16.76
2017-08-11T05:26:55.390Z,16.79
2017-08-11T05:27:55.045Z,16.75
2017-08-11T05:28:55.381Z,16.74
2017-08-11T05:29:55.014Z,16.76
2017-08-11T05:30:55.396Z,16.75
2017-08-11T05:31:55.320Z,16.75
2017-08-11T05:32:55.280Z,16.76
2017-08-11T05:33:55.311Z,16.72
2017-08-11T05:34:54.949Z,16.74
2017-08-11T05:35:54.910Z,16.78
2017-08-11T05:36:55.264Z,16.79
2017-08-11T05:37:55.191Z,16.76
2017-08-11T05:38:55.279Z,16.81
2017-08-11T05:39:55.160Z,16.89
2017-08-11T05:40:55.138Z,16.85
2017-08-11T05:41:55.130Z,16.97
2017-08-11T05:42:54.497Z,16.9
2017-08-11T05:43:54.794Z,16.9
2017-08-11T05:44:54.754Z,16.93
2017-08-11T05:45:55.099Z,16.97
2017-08-11T05:46:54.430Z,16.89
2017-08-11T05:47:55.020Z,16.96
2017-08-11T05:48:54.697Z,16.91
2017-08-11T05:49:54.989Z,16.91
2017-08-11T05:50:54.350Z,16.89
2017-08-11T05:51:54.961Z,16.93
2017-08-11T05:52:54.962Z,16.96
2017-08-11T05:53:54.619Z,16.93
2017-08-11T05:54:54.598Z,16.96
2017-08-11T05:55:54.948Z,16.9
2017-08-11T05:56:54.865Z,16.87
2017-08-11T05:57:54.896Z,16.87
2017-08-11T05:58:54.845Z,16.96
2017-08-11T05:59:54.823Z,16.97
2017-08-11T06:00:54.799Z,17.03
2017-08-11T06:01:54.792Z,17
2017-08-11T06:02:54.774Z,16.97
2017-08-11T06:03:54.760Z,16.97
2017-08-11T06:04:54.760Z,17.09
2017-08-11T06:05:54.417Z,17.03
2017-08-11T06:06:54.399Z,17.05
2017-08-11T06:07:54.681Z,17.06
2017-08-11T06:08:54.368Z,17.09
2017-08-11T06:09:54.660Z,17.09
2017-08-11T06:10:54.350Z,17.09
2017-08-11T06:11:54.629Z,17.09
2017-08-11T06:12:54.619Z,17.03
2017-08-11T06:13:54.600Z,17.12
2017-08-11T06:14:54.271Z,17.03
2017-08-11T06:15:53.938Z,17.08
2017-08-11T06:16:54.543Z,17.01
2017-08-11T06:17:54.220Z,16.98
2017-08-11T06:18:54.520Z,17.03
2017-08-11T06:19:54.209Z,17.06
2017-08-11T06:20:54.166Z,17.06
2017-08-11T06:21:54.159Z,17.06
2017-08-11T06:22:54.459Z,16.97
2017-08-11T06:23:54.444Z,17.03
2017-08-11T06:24:54.417Z,17.03
2017-08-11T06:25:54.089Z,17.09
2017-08-11T06:26:54.380Z,17.09
2017-08-11T06:27:54.375Z,17.11
2017-08-11T06:28:54.359Z,17.09
2017-08-11T06:29:54.031Z,17.21
2017-08-11T06:30:54.014Z,17.16
2017-08-11T06:31:54.015Z,17.22
2017-08-11T06:32:54.279Z,17.18
2017-08-11T06:33:54.250Z,17.18
2017-08-11T06:34:53.950Z,17.19
2017-08-11T06:35:54.229Z,17.16
2017-08-11T06:36:53.942Z,17.21
2017-08-11T06:37:53.888Z,17.19
2017-08-11T06:38:53.886Z,17.22
2017-08-11T06:39:54.202Z,17.21
2017-08-11T06:40:54.156Z,17.24
2017-08-11T06:41:54.140Z,17.21
2017-08-11T06:42:54.118Z,17.21
2017-08-11T06:43:53.799Z,17.19
2017-08-11T06:44:54.096Z,17.11
2017-08-11T06:45:54.063Z,17.18
2017-08-11T06:46:54.071Z,17.16
2017-08-11T06:47:53.735Z,17.18
2017-08-11T06:48:53.774Z,17.14
2017-08-11T06:49:53.689Z,17.24
2017-08-11T06:50:53.700Z,17.18
2017-08-11T06:51:53.969Z,17.08
2017-08-11T06:52:53.659Z,17.06
2017-08-11T06:53:53.929Z,17.19
2017-08-11T06:54:53.347Z,17.12
2017-08-11T06:55:53.901Z,17.15
2017-08-11T06:56:53.609Z,17.11
2017-08-11T06:57:53.871Z,17.16
2017-08-11T06:58:53.561Z,17.12
2017-08-11T06:59:53.839Z,17.18
2017-08-11T07:00:53.840Z,17.08
2017-08-11T07:01:53.554Z,17.09
2017-08-11T07:02:53.489Z,17.01
2017-08-11T07:03:53.469Z,17.05
2017-08-11T07:04:53.757Z,17.09
2017-08-11T07:05:53.126Z,17.08
2017-08-11T07:06:53.739Z,17.03
2017-08-11T07:07:53.085Z,17.05
2017-08-11T07:08:53.389Z,17.05
2017-08-11T07:09:53.427Z,17.12
2017-08-11T07:10:53.351Z,17.05
2017-08-11T07:11:53.398Z,16.93
2017-08-11T07:12:53.319Z,16.94
2017-08-11T07:13:53.609Z,16.97
2017-08-11T07:14:53.287Z,16.94
2017-08-11T07:15:53.301Z,17.05
2017-08-11T07:16:53.259Z,17.06
2017-08-11T07:17:53.303Z,17.03
2017-08-11T07:18:53.540Z,17.06
2017-08-11T07:19:52.910Z,17.01
2017-08-11T07:20:53.251Z,17.08
2017-08-11T07:21:53.487Z,17.09
2017-08-11T07:22:53.572Z,17.06
2017-08-11T07:23:53.153Z,17.19
2017-08-11T07:24:53.133Z,17.29
2017-08-11T07:25:53.110Z,17.18
2017-08-11T07:26:52.800Z,17.08
2017-08-11T07:27:52.768Z,17.06
2017-08-11T07:28:52.757Z,17.15
2017-08-11T07:29:53.050Z,17.12
2017-08-11T07:30:53.401Z,17.06
2017-08-11T07:31:53.146Z,17.06
2017-08-11T07:32:53.321Z,17.11
2017-08-11T07:33:52.982Z,17.03
2017-08-11T07:34:53.283Z,17.08
2017-08-11T07:35:52.955Z,17.15
2017-08-11T07:36:53.263Z,17.14
2017-08-11T07:37:57.252Z,17.06
2017-08-11T07:38:52.902Z,17.08
2017-08-11T07:39:53.301Z,17.09
2017-08-11T07:40:53.197Z,17.19
2017-08-11T07:41:52.912Z,17.06
2017-08-11T07:42:52.849Z,17.11
2017-08-11T07:43:52.952Z,17.18
2017-08-11T07:44:52.811Z,17.15
2017-08-11T07:45:53.089Z,17.19
2017-08-11T07:46:53.086Z,17.18
2017-08-11T07:47:53.081Z,17.18
2017-08-11T07:48:53.089Z,17.29
2017-08-11T07:49:52.738Z,17.31
2017-08-11T07:50:52.723Z,17.33
2017-08-11T07:51:52.721Z,17.36
2017-08-11T07:52:53.001Z,17.3
2017-08-11T07:53:52.682Z,17.33
2017-08-11T07:54:52.964Z,17.27
2017-08-11T07:55:52.632Z,17.29
2017-08-11T07:56:52.982Z,17.22
2017-08-11T07:57:52.914Z,17.24
2017-08-11T07:58:52.952Z,17.24
2017-08-11T07:59:52.875Z,17.26
2017-08-11T08:00:52.869Z,17.37
2017-08-11T08:01:52.861Z,17.34
2017-08-11T08:02:52.512Z,17.37
2017-08-11T08:03:52.803Z,17.3
2017-08-11T08:04:52.831Z,17.29
2017-08-11T08:05:52.775Z,17.31
2017-08-11T08:06:52.803Z,17.33
2017-08-11T08:07:52.768Z,17.31
2017-08-11T08:08:52.772Z,17.33
2017-08-11T08:09:52.940Z,17.3
2017-08-11T08:10:52.741Z,17.36
2017-08-11T08:11:52.675Z,17.19
2017-08-11T08:12:52.650Z,17.22
2017-08-11T08:13:52.652Z,17.21
2017-08-11T08:14:52.640Z,17.31
2017-08-11T08:15:52.329Z,17.34
2017-08-11T08:16:52.622Z,17.37
2017-08-11T08:17:52.583Z,17.36
2017-08-11T08:18:52.680Z,17.4
2017-08-11T08:19:52.550Z,17.37
2017-08-11T08:20:51.931Z,17.4
2017-08-11T08:21:52.241Z,17.46
2017-08-11T08:22:52.188Z,17.46
2017-08-11T08:23:52.683Z,17.44
2017-08-11T08:24:52.458Z,17.49
2017-08-11T08:25:52.459Z,17.49
2017-08-11T08:26:52.430Z,17.44
2017-08-11T08:27:52.427Z,17.62
2017-08-11T08:28:52.402Z,17.58
2017-08-11T08:29:52.376Z,17.65
2017-08-11T08:30:52.372Z,17.83
2017-08-11T08:31:52.050Z,17.87
2017-08-11T08:32:52.027Z,17.87
2017-08-11T08:33:52.020Z,17.98
2017-08-11T08:34:52.300Z,18.04
2017-08-11T08:35:51.712Z,18.02
2017-08-11T08:36:52.282Z,17.83
2017-08-11T08:37:51.948Z,17.89
2017-08-11T08:38:51.941Z,17.82
2017-08-11T08:39:52.240Z,17.72
2017-08-11T08:40:51.932Z,17.7
2017-08-11T08:41:52.190Z,17.64
2017-08-11T08:42:52.191Z,17.74
2017-08-11T08:43:51.858Z,17.82
2017-08-11T08:44:51.840Z,17.92
2017-08-11T08:45:51.830Z,17.9
2017-08-11T08:46:51.811Z,17.87
2017-08-11T08:47:52.113Z,17.93
2017-08-11T08:48:51.772Z,18.05
2017-08-11T08:49:52.071Z,18.04
2017-08-11T08:50:51.750Z,18.11
2017-08-11T08:51:52.039Z,18.04
2017-08-11T08:52:51.712Z,18.2
2017-08-11T08:53:51.705Z,18.23
2017-08-11T08:54:52.000Z,18.26
2017-08-11T08:55:51.981Z,18.23
2017-08-11T08:56:51.970Z,18.38
2017-08-11T08:57:51.641Z,18.2
2017-08-11T08:58:51.630Z,18.14
2017-08-11T08:59:51.913Z,18.26
2017-08-11T09:00:51.596Z,18.35
2017-08-11T09:01:51.880Z,18.47
2017-08-11T09:02:51.568Z,18.4
2017-08-11T09:03:51.560Z,18.58
2017-08-11T09:04:51.538Z,18.62
2017-08-11T09:05:51.522Z,18.63
2017-08-11T09:06:51.799Z,18.65
2017-08-11T09:07:51.790Z,18.66
2017-08-11T09:08:51.490Z,18.62
2017-08-11T09:09:51.472Z,18.6
2017-08-11T09:10:51.761Z,18.63
2017-08-11T09:11:51.740Z,18.52
2017-08-11T09:12:51.721Z,18.48
2017-08-11T09:13:51.112Z,18.48
2017-08-11T09:14:51.684Z,18.44
2017-08-11T09:15:51.891Z,18.38
2017-08-11T09:16:51.355Z,18.4
2017-08-11T09:17:51.643Z,18.44
2017-08-11T09:18:51.647Z,18.47
2017-08-11T09:19:51.622Z,18.42
2017-08-11T09:20:51.613Z,18.48
2017-08-11T09:21:51.612Z,18.47
2017-08-11T09:22:51.570Z,18.41
2017-08-11T09:23:51.553Z,18.42
2017-08-11T09:24:51.561Z,18.47
2017-08-11T09:25:50.920Z,18.44
2017-08-11T09:26:51.512Z,18.55
2017-08-11T09:27:51.482Z,18.65
2017-08-11T09:28:51.482Z,18.75
2017-08-11T09:29:51.457Z,18.77
2017-08-11T09:30:51.450Z,18.8
2017-08-11T09:31:51.430Z,18.82
2017-08-11T09:32:51.259Z,18.82
2017-08-11T09:33:51.412Z,18.88
2017-08-11T09:34:51.430Z,18.88
2017-08-11T09:35:51.367Z,18.8
2017-08-11T09:36:51.093Z,18.82
2017-08-11T09:37:50.741Z,18.82
2017-08-11T09:38:51.050Z,18.78
2017-08-11T09:39:51.323Z,18.7
2017-08-11T09:40:51.311Z,18.74
2017-08-11T09:41:51.352Z,18.65
2017-08-11T09:42:51.299Z,18.7
2017-08-11T09:43:51.273Z,18.7
2017-08-11T09:44:51.343Z,18.51
2017-08-11T09:45:50.920Z,18.51
2017-08-11T09:46:51.281Z,18.47
2017-08-11T09:47:51.206Z,18.42
2017-08-11T09:48:50.875Z,18.47
2017-08-11T09:49:50.853Z,18.59
2017-08-11T09:50:50.842Z,18.65
2017-08-11T09:51:51.221Z,18.78
2017-08-11T09:52:51.121Z,18.92
2017-08-11T09:53:50.800Z,18.93
2017-08-11T09:54:51.092Z,18.85
2017-08-11T09:55:50.771Z,18.96
2017-08-11T09:56:51.067Z,18.96
2017-08-11T09:57:50.737Z,18.96
2017-08-11T09:58:50.724Z,18.92
2017-08-11T09:59:50.748Z,18.93
2017-08-11T10:00:50.684Z,18.88
2017-08-11T10:01:50.683Z,18.87
2017-08-11T10:02:50.664Z,18.8
2017-08-11T10:03:51.011Z,18.81
2017-08-11T10:04:50.947Z,18.78
2017-08-11T10:05:50.945Z,18.65
2017-08-11T10:06:50.606Z,18.58
2017-08-11T10:07:50.954Z,18.63
2017-08-11T10:08:50.575Z,18.63
2017-08-11T10:09:50.570Z,18.62
2017-08-11T10:10:50.552Z,18.66
2017-08-11T10:11:50.533Z,18.67
2017-08-11T10:12:50.831Z,18.7
2017-08-11T10:13:50.504Z,18.7
2017-08-11T10:14:50.792Z,18.63
2017-08-11T10:15:50.791Z,18.63
2017-08-11T10:16:50.763Z,18.55
2017-08-11T10:17:50.742Z,18.5
2017-08-11T10:18:50.752Z,18.55
2017-08-11T10:19:50.713Z,18.35
2017-08-11T10:20:50.405Z,18.38
2017-08-11T10:21:50.693Z,18.37
2017-08-11T10:22:50.668Z,18.35
2017-08-11T10:23:50.679Z,18.37
2017-08-11T10:24:50.370Z,18.33
2017-08-11T10:25:50.376Z,18.35
2017-08-11T10:26:50.622Z,18.37
2017-08-11T10:27:50.355Z,18.4
2017-08-11T10:28:50.594Z,18.29
2017-08-11T10:29:50.582Z,18.38
2017-08-11T10:30:50.261Z,18.35
2017-08-11T10:31:50.533Z,18.44
2017-08-11T10:32:50.532Z,18.4
2017-08-11T10:33:50.513Z,18.47
2017-08-11T10:34:50.501Z,18.51
2017-08-11T10:35:50.472Z,18.63
2017-08-11T10:36:50.463Z,18.75
2017-08-11T10:37:50.462Z,18.78
2017-08-11T10:38:50.437Z,18.9
2017-08-11T10:39:50.422Z,18.9
2017-08-11T10:40:50.406Z,18.85
2017-08-11T10:41:50.464Z,18.99
2017-08-11T10:42:49.819Z,19.16
2017-08-11T10:43:50.357Z,19.25
2017-08-11T10:44:50.353Z,19.19
2017-08-11T10:45:50.335Z,19.25
2017-08-11T10:46:50.312Z,19.28
2017-08-11T10:47:50.325Z,19.31
2017-08-11T10:48:50.293Z,19.3
2017-08-11T10:49:50.284Z,19.21
2017-08-11T10:50:49.952Z,19.3
2017-08-11T10:51:49.934Z,19.36
2017-08-11T10:52:49.924Z,19.26
2017-08-11T10:53:49.914Z,19.26
2017-08-11T10:54:49.906Z,19.21
2017-08-11T10:55:50.226Z,19.25
2017-08-11T10:56:50.003Z,19.19
2017-08-11T10:57:50.174Z,18.92
2017-08-11T10:58:50.145Z,18.95
2017-08-11T10:59:49.826Z,18.87
2017-08-11T11:00:50.130Z,18.9
2017-08-11T11:01:49.794Z,18.88
2017-08-11T11:02:50.097Z,18.85
2017-08-11T11:03:49.833Z,18.8
2017-08-11T11:04:49.512Z,18.8
2017-08-11T11:05:50.033Z,18.81
2017-08-11T11:06:50.045Z,18.75
2017-08-11T11:07:49.703Z,18.77
2017-08-11T11:08:49.992Z,18.74
2017-08-11T11:09:49.995Z,18.73
2017-08-11T11:10:49.494Z,18.74
2017-08-11T11:11:49.713Z,18.69
2017-08-11T11:12:49.948Z,18.66
2017-08-11T11:13:49.910Z,18.63
2017-08-11T11:14:49.919Z,18.62
2017-08-11T11:15:49.880Z,18.66
2017-08-11T11:16:49.874Z,18.62
2017-08-11T11:17:49.862Z,18.7
2017-08-11T11:18:49.859Z,18.69
2017-08-11T11:19:49.541Z,18.7
2017-08-11T11:20:49.228Z,18.63
2017-08-11T11:21:49.494Z,18.66
2017-08-11T11:22:49.485Z,18.66
2017-08-11T11:23:49.164Z,18.63
2017-08-11T11:24:49.153Z,18.63
2017-08-11T11:25:49.746Z,18.6
2017-08-11T11:26:49.423Z,18.58
2017-08-11T11:27:49.092Z,18.56
2017-08-11T11:28:49.701Z,18.55
2017-08-11T11:29:49.515Z,18.52
2017-08-11T11:30:49.662Z,18.47
2017-08-11T11:31:49.445Z,18.58
2017-08-11T11:32:49.334Z,18.42
2017-08-11T11:33:49.322Z,18.4
2017-08-11T11:34:49.719Z,18.48
2017-08-11T11:35:48.983Z,18.32
2017-08-11T11:36:49.265Z,18.38
2017-08-11T11:37:49.655Z,18.42
2017-08-11T11:38:49.561Z,18.37
2017-08-11T11:39:49.574Z,18.48
2017-08-11T11:40:49.541Z,18.37
2017-08-11T11:41:49.643Z,18.42
2017-08-11T11:42:49.494Z,18.37
2017-08-11T11:43:49.522Z,18.32
2017-08-11T11:44:49.455Z,18.35
2017-08-11T11:45:49.153Z,18.33
2017-08-11T11:46:49.146Z,18.35
2017-08-11T11:47:49.143Z,18.38
2017-08-11T11:48:49.409Z,18.37
2017-08-11T11:49:49.442Z,18.45
2017-08-11T11:50:49.066Z,18.44
2017-08-11T11:51:49.363Z,18.56
2017-08-11T11:52:49.012Z,18.5
2017-08-11T11:53:49.012Z,18.62
2017-08-11T11:54:49.015Z,18.66
2017-08-11T11:55:49.006Z,18.66
2017-08-11T11:56:48.983Z,18.65
2017-08-11T11:57:49.263Z,18.77
2017-08-11T11:58:49.249Z,18.88
2017-08-11T11:59:48.933Z,18.93
2017-08-11T12:00:49.280Z,19.04
2017-08-11T12:01:49.205Z,19.06
2017-08-11T12:02:48.896Z,19.04
2017-08-11T12:03:49.173Z,19.21
2017-08-11T12:04:48.860Z,19.22
2017-08-11T12:05:48.839Z,19.36
2017-08-11T12:06:48.834Z,19.48
2017-08-11T12:07:49.111Z,19.44
2017-08-11T12:08:49.097Z,19.46
2017-08-11T12:09:49.094Z,19.53
2017-08-11T12:10:48.773Z,19.46
2017-08-11T12:11:48.765Z,19.55
2017-08-11T12:12:48.753Z,19.53
2017-08-11T12:13:48.718Z,19.62
2017-08-11T12:14:48.710Z,19.67
2017-08-11T12:15:48.682Z,19.74
2017-08-11T12:16:48.364Z,19.77
2017-08-11T12:17:48.685Z,19.83
2017-08-11T12:18:48.351Z,19.78
2017-08-11T12:19:48.953Z,19.76
2017-08-11T12:20:48.635Z,19.67
2017-08-11T12:21:48.934Z,19.78
2017-08-11T12:22:48.905Z,19.74
2017-08-11T12:23:48.875Z,19.69
2017-08-11T12:24:48.565Z,19.58
2017-08-11T12:25:48.554Z,19.66
2017-08-11T12:26:48.844Z,19.61
2017-08-11T12:27:48.832Z,19.51
2017-08-11T12:28:48.814Z,19.52
2017-08-11T12:29:48.502Z,19.49
2017-08-11T12:30:48.502Z,19.25
2017-08-11T12:31:48.161Z,19.31
2017-08-11T12:32:48.762Z,19.22
2017-08-11T12:33:48.441Z,19.21
2017-08-11T12:34:48.726Z,19.19
2017-08-11T12:35:48.402Z,19.21
2017-08-11T12:36:48.386Z,19.22
2017-08-11T12:37:48.685Z,19.34
2017-08-11T12:38:48.379Z,19.36
2017-08-11T12:39:48.652Z,19.43
2017-08-11T12:40:48.656Z,19.38
2017-08-11T12:41:48.624Z,19.25
2017-08-11T12:42:48.323Z,19.38
2017-08-11T12:43:48.296Z,19.18
2017-08-11T12:44:48.322Z,19.31
2017-08-11T12:45:48.273Z,19.22
2017-08-11T12:46:48.562Z,19.28
2017-08-11T12:47:48.254Z,19.22
2017-08-11T12:48:48.254Z,19.22
2017-08-11T12:49:48.285Z,19.18
2017-08-11T12:50:48.203Z,19.19
2017-08-11T12:51:48.483Z,19.23
2017-08-11T12:52:48.484Z,19.12
2017-08-11T12:53:48.483Z,19.08